createdAt,value
2018-06-25T00:00:50.148Z,81.41
2018-06-25T00:01:50.145Z,81.31
2018-06-25T00:02:50.144Z,81.41
2018-06-25T00:03:50.144Z,81.31
2018-06-25T00:04:50.143Z,81.75
2018-06-25T00:05:50.142Z,81.70
2018-06-25T00:06:50.139Z,81.60
2018-06-25T00:07:50.138Z,81.41
2018-06-25T00:08:50.135Z,81.51
2018-06-25T00:09:50.134Z,82.27
2018-06-25T00:10:50.129Z,82.08
2018-06-25T00:11:50.128Z,81.79
2018-06-25T00:12:50.126Z,82.27
2018-06-25T00:13:50.124Z,81.60
2018-06-25T00:14:50.122Z,81.66
2018-06-25T00:15:50.122Z,82.27
2018-06-25T00:16:50.124Z,82.46
2018-06-25T00:17:50.117Z,82.42
2018-06-25T00:18:50.117Z,82.37
2018-06-25T00:19:50.115Z,82.18
2018-06-25T00:20:50.112Z,82.37
2018-06-25T00:21:50.112Z,83.09
2018-06-25T00:22:50.115Z,82.65
2018-06-25T00:23:50.111Z,81.98
2018-06-25T00:24:50.113Z,82.85
2018-06-25T00:25:50.105Z,82.14
2018-06-25T00:26:50.111Z,82.18
2018-06-25T00:27:50.107Z,82.65
2018-06-25T00:28:50.097Z,82.75
2018-06-25T00:29:50.106Z,82.65
2018-06-25T00:30:50.096Z,82.71
2018-06-25T00:31:50.093Z,83.23
2018-06-25T00:32:50.090Z,83.00
2018-06-25T00:33:50.089Z,83.00
2018-06-25T00:34:50.090Z,83.19
2018-06-25T00:35:50.086Z,83.48
2018-06-25T00:36:50.083Z,83.48
2018-06-25T00:37:50.082Z,82.90
2018-06-25T00:38:50.080Z,83.19
2018-06-25T00:39:50.078Z,82.71
2018-06-25T00:40:50.077Z,82.71
2018-06-25T00:41:50.075Z,83.38
2018-06-25T00:42:50.073Z,83.29
2018-06-25T00:43:50.073Z,83.29
2018-06-25T00:44:50.068Z,83.61
2018-06-25T00:45:50.067Z,83.19
2018-06-25T00:46:50.063Z,83.48
2018-06-25T00:47:50.063Z,83.48
2018-06-25T00:48:50.061Z,83.86
2018-06-25T00:49:50.057Z,83.76
2018-06-25T00:50:50.055Z,83.95
2018-06-25T00:51:50.062Z,83.86
2018-06-25T00:52:50.052Z,83.86
2018-06-25T00:53:50.053Z,84.05
2018-06-25T00:54:50.053Z,83.95
2018-06-25T00:55:50.048Z,85.11
2018-06-25T00:56:50.051Z,85.01
2018-06-25T00:57:50.041Z,85.11
2018-06-25T00:58:50.042Z,85.11
2018-06-25T00:59:50.041Z,85.01
2018-06-25T01:00:50.038Z,84.82
2018-06-25T01:01:50.035Z,85.01
2018-06-25T01:02:50.034Z,85.01
2018-06-25T01:03:50.035Z,85.25
2018-06-25T01:04:50.031Z,85.11
2018-06-25T01:05:50.029Z,85.78
2018-06-25T01:06:50.027Z,85.06
2018-06-25T01:07:50.025Z,86.93
2018-06-25T01:08:50.077Z,86.88
2018-06-25T01:09:50.020Z,86.02
2018-06-25T01:10:50.028Z,85.83
2018-06-25T01:11:50.016Z,85.74
2018-06-25T01:12:50.016Z,85.64
2018-06-25T01:13:50.012Z,86.41
2018-06-25T01:14:50.017Z,86.02
2018-06-25T01:15:50.008Z,85.74
2018-06-25T01:16:50.009Z,85.74
2018-06-25T01:17:50.006Z,85.93
2018-06-25T01:18:50.005Z,85.93
2018-06-25T01:19:50.000Z,86.02
2018-06-25T01:20:49.998Z,85.74
2018-06-25T01:21:49.998Z,86.21
2018-06-25T01:22:49.996Z,86.31
2018-06-25T01:23:49.993Z,86.41
2018-06-25T01:24:49.990Z,85.74
2018-06-25T01:25:49.992Z,86.41
2018-06-25T01:26:49.993Z,86.31
2018-06-25T01:27:49.985Z,86.31
2018-06-25T01:28:49.983Z,86.50
2018-06-25T01:29:49.982Z,86.69
2018-06-25T01:30:49.984Z,86.79
2018-06-25T01:31:49.980Z,87.08
2018-06-25T01:32:49.975Z,87.37
2018-06-25T01:33:49.980Z,87.46
2018-06-25T01:34:49.971Z,87.27
2018-06-25T01:35:49.970Z,87.84
2018-06-25T01:36:49.968Z,87.94
2018-06-25T01:37:49.965Z,87.84
2018-06-25T01:38:49.963Z,88.13
2018-06-25T01:39:49.962Z,88.23
2018-06-25T01:40:49.960Z,88.23
2018-06-25T01:41:49.958Z,88.61
2018-06-25T01:42:49.958Z,88.23
2018-06-25T01:43:49.953Z,88.70
2018-06-25T01:44:49.951Z,88.32
2018-06-25T01:45:49.948Z,88.90
2018-06-25T01:46:49.946Z,88.61
2018-06-25T01:47:49.950Z,88.80
2018-06-25T01:48:49.943Z,89.37
2018-06-25T01:49:49.945Z,88.90
2018-06-25T01:50:49.940Z,89.09
2018-06-25T01:51:49.938Z,89.95
2018-06-25T01:52:49.935Z,89.37
2018-06-25T01:53:49.933Z,89.57
2018-06-25T01:54:49.930Z,89.86
2018-06-25T01:55:49.930Z,89.66
2018-06-25T01:56:49.926Z,89.66
2018-06-25T01:57:49.976Z,90.05
2018-06-25T01:58:49.921Z,89.95
2018-06-25T01:59:49.925Z,89.95
2018-06-25T02:00:49.919Z,90.05
2018-06-25T02:01:49.917Z,89.95
2018-06-25T02:02:49.914Z,89.76
2018-06-25T02:03:49.913Z,89.57
2018-06-25T02:04:49.909Z,89.66
2018-06-25T02:05:49.907Z,89.37
2018-06-25T02:06:49.906Z,89.66
2018-06-25T02:07:49.901Z,90.14
2018-06-25T02:08:49.899Z,90.05
2018-06-25T02:09:49.896Z,90.05
2018-06-25T02:10:49.898Z,89.86
2018-06-25T02:11:49.895Z,89.76
2018-06-25T02:12:49.891Z,89.95
2018-06-25T02:13:49.890Z,90.43
2018-06-25T02:14:49.888Z,91.29
2018-06-25T02:15:49.888Z,90.23
2018-06-25T02:16:49.886Z,90.91
2018-06-25T02:17:49.880Z,90.33
2018-06-25T02:18:49.880Z,90.43
2018-06-25T02:19:49.880Z,90.72
2018-06-25T02:20:49.874Z,91.58
2018-06-25T02:21:49.873Z,91.39
2018-06-25T02:22:49.869Z,91.44
2018-06-25T02:23:49.869Z,90.77
2018-06-25T02:24:49.865Z,90.96
2018-06-25T02:25:49.863Z,92.44
2018-06-25T02:26:49.862Z,91.49
2018-06-25T02:27:49.865Z,91.29
2018-06-25T02:28:49.858Z,91.92
2018-06-25T02:29:49.852Z,91.67
2018-06-25T02:30:49.852Z,91.44
2018-06-25T02:31:49.849Z,92.01
2018-06-25T02:32:49.847Z,92.58
2018-06-25T02:33:49.846Z,91.96
2018-06-25T02:34:49.844Z,92.58
2018-06-25T02:35:49.842Z,91.72
2018-06-25T02:36:49.842Z,92.40
2018-06-25T02:37:49.837Z,92.11
2018-06-25T02:38:49.835Z,91.92
2018-06-25T02:39:49.831Z,92.21
2018-06-25T02:40:49.832Z,92.21
2018-06-25T02:41:49.826Z,92.40
2018-06-25T02:42:49.825Z,92.21
2018-06-25T02:43:49.824Z,92.11
2018-06-25T02:44:49.820Z,91.92
2018-06-25T02:45:49.819Z,92.40
2018-06-25T02:46:49.815Z,92.87
2018-06-25T02:47:49.815Z,92.97
2018-06-25T02:48:49.812Z,92.68
2018-06-25T02:49:49.811Z,92.87
2018-06-25T02:50:49.807Z,92.87
2018-06-25T02:51:49.805Z,93.35
2018-06-25T02:52:49.803Z,92.78
2018-06-25T02:53:49.801Z,92.78
2018-06-25T02:54:49.802Z,92.87
2018-06-25T02:55:49.797Z,92.68
2018-06-25T02:56:49.792Z,92.58
2018-06-25T02:57:49.790Z,92.68
2018-06-25T02:58:49.791Z,92.87
2018-06-25T02:59:49.789Z,93.26
2018-06-25T03:00:49.783Z,93.35
2018-06-25T03:01:49.781Z,93.64
2018-06-25T03:02:49.790Z,93.07
2018-06-25T03:03:49.783Z,93.54
2018-06-25T03:04:49.773Z,93.45
2018-06-25T03:05:49.771Z,93.45
2018-06-25T03:06:49.770Z,93.64
2018-06-25T03:07:49.768Z,93.74
2018-06-25T03:08:49.768Z,93.35
2018-06-25T03:09:49.763Z,93.54
2018-06-25T03:10:49.759Z,93.35
2018-06-25T03:11:49.757Z,93.74
2018-06-25T03:12:49.755Z,93.74
2018-06-25T03:13:49.755Z,94.12
2018-06-25T03:14:49.751Z,94.50
2018-06-25T03:15:49.752Z,94.50
2018-06-25T03:16:49.745Z,94.60
2018-06-25T03:17:49.741Z,95.36
2018-06-25T03:18:49.741Z,95.36
2018-06-25T03:19:49.738Z,94.98
2018-06-25T03:20:49.747Z,94.79
2018-06-25T03:21:49.732Z,94.69
2018-06-25T03:22:49.731Z,94.98
2018-06-25T03:23:49.729Z,95.07
2018-06-25T03:24:49.728Z,94.98
2018-06-25T03:25:49.724Z,94.98
2018-06-25T03:26:49.721Z,94.98
2018-06-25T03:27:49.719Z,94.50
2018-06-25T03:28:49.714Z,95.07
2018-06-25T03:29:49.715Z,94.40
2018-06-25T03:30:49.713Z,94.50
2018-06-25T03:31:49.707Z,94.60
2018-06-25T03:32:49.705Z,94.40
2018-06-25T03:33:49.705Z,94.69
2018-06-25T03:34:49.705Z,95.17
2018-06-25T03:35:49.703Z,95.17
2018-06-25T03:36:49.694Z,95.17
2018-06-25T03:37:49.694Z,95.56
2018-06-25T03:38:49.690Z,94.79
2018-06-25T03:39:49.689Z,94.98
2018-06-25T03:40:49.684Z,96.80
2018-06-25T03:41:49.683Z,95.94
2018-06-25T03:42:49.681Z,95.84
2018-06-25T03:43:49.678Z,96.80
2018-06-25T03:44:49.675Z,96.89
2018-06-25T03:45:49.673Z,96.03
2018-06-25T03:46:49.673Z,96.32
2018-06-25T03:47:49.668Z,97.09
2018-06-25T03:48:49.666Z,97.18
2018-06-25T03:49:49.663Z,96.22
2018-06-25T03:50:49.660Z,96.51
2018-06-25T03:51:49.661Z,97.38
2018-06-25T03:52:49.656Z,96.61
2018-06-25T03:53:49.654Z,96.22
2018-06-25T03:54:49.653Z,96.51
2018-06-25T03:55:49.651Z,96.61
2018-06-25T03:56:49.646Z,97.13
2018-06-25T03:57:49.647Z,97.23
2018-06-25T03:58:49.641Z,96.80
2018-06-25T03:59:49.639Z,96.94
2018-06-25T04:00:49.635Z,97.23
2018-06-25T04:01:49.635Z,98.14
2018-06-25T04:02:49.637Z,97.47
2018-06-25T04:03:49.631Z,97.38
2018-06-25T04:04:49.628Z,97.95
2018-06-25T04:05:49.626Z,97.66
2018-06-25T04:06:49.626Z,97.18
2018-06-25T04:07:49.620Z,97.38
2018-06-25T04:08:49.617Z,98.19
2018-06-25T04:09:49.616Z,99.48
2018-06-25T04:10:49.613Z,99.58
2018-06-25T04:11:49.611Z,98.62
2018-06-25T04:12:49.608Z,98.62
2018-06-25T04:13:49.605Z,98.33
2018-06-25T04:14:49.606Z,97.85
2018-06-25T04:15:49.605Z,97.38
2018-06-25T04:16:49.600Z,98.24
2018-06-25T04:17:49.598Z,97.95
2018-06-25T04:18:49.596Z,97.18
2018-06-25T04:19:49.592Z,97.28
2018-06-25T04:20:49.630Z,97.66
2018-06-25T04:21:49.589Z,98.14
2018-06-25T04:22:49.585Z,97.38
2018-06-25T04:23:49.595Z,96.22
2018-06-25T04:24:49.582Z,97.09
2018-06-25T04:25:49.578Z,97.28
2018-06-25T04:26:49.580Z,98.14
2018-06-25T04:27:49.575Z,98.33
2018-06-25T04:28:49.571Z,98.33
2018-06-25T04:29:49.569Z,97.38
2018-06-25T04:30:49.680Z,96.51
2018-06-25T04:31:49.565Z,96.70
2018-06-25T04:32:49.563Z,96.61
2018-06-25T04:33:49.560Z,96.61
2018-06-25T04:34:49.559Z,96.84
2018-06-25T04:35:49.557Z,96.66
2018-06-25T04:36:49.552Z,96.94
2018-06-25T04:37:49.554Z,96.66
2018-06-25T04:38:49.553Z,96.84
2018-06-25T04:39:49.546Z,96.47
2018-06-25T04:40:49.548Z,96.37
2018-06-25T04:41:49.543Z,96.66
2018-06-25T04:42:49.540Z,95.98
2018-06-25T04:43:49.538Z,95.41
2018-06-25T04:44:49.533Z,95.41
2018-06-25T04:45:49.536Z,95.03
2018-06-25T04:46:49.531Z,95.79
2018-06-25T04:47:49.527Z,96.56
2018-06-25T04:48:49.526Z,96.94
2018-06-25T04:49:49.522Z,95.89
2018-06-25T04:50:49.522Z,96.18
2018-06-25T04:51:49.520Z,94.74
2018-06-25T04:52:49.516Z,94.74
2018-06-25T04:53:49.515Z,94.84
2018-06-25T04:54:49.511Z,94.35
2018-06-25T04:55:49.508Z,94.64
2018-06-25T04:56:49.506Z,94.93
2018-06-25T04:57:49.505Z,95.79
2018-06-25T04:58:49.502Z,95.60
2018-06-25T04:59:49.501Z,94.74
2018-06-25T05:00:49.518Z,94.35
2018-06-25T05:01:49.497Z,93.59
2018-06-25T05:02:49.498Z,94.45
2018-06-25T05:03:49.497Z,94.55
2018-06-25T05:04:49.490Z,94.55
2018-06-25T05:05:49.489Z,94.45
2018-06-25T05:06:49.486Z,94.55
2018-06-25T05:07:49.484Z,94.84
2018-06-25T05:08:49.518Z,95.12
2018-06-25T05:09:49.478Z,94.45
2018-06-25T05:10:49.477Z,93.30
2018-06-25T05:11:49.477Z,93.49
2018-06-25T05:12:49.474Z,94.12
2018-06-25T05:13:49.469Z,93.26
2018-06-25T05:14:49.468Z,93.30
2018-06-25T05:15:49.466Z,93.63
2018-06-25T05:16:49.463Z,93.63
2018-06-25T05:17:49.462Z,93.35
2018-06-25T05:18:49.458Z,93.44
2018-06-25T05:19:49.458Z,94.12
2018-06-25T05:20:49.456Z,94.02
2018-06-25T05:21:49.458Z,93.54
2018-06-25T05:22:49.490Z,94.02
2018-06-25T05:23:49.452Z,92.77
2018-06-25T05:24:49.446Z,93.06
2018-06-25T05:25:49.443Z,93.93
2018-06-25T05:26:49.443Z,93.63
2018-06-25T05:27:49.441Z,92.87
2018-06-25T05:28:49.437Z,92.87
2018-06-25T05:29:49.432Z,93.16
2018-06-25T05:30:49.433Z,92.87
2018-06-25T05:31:49.432Z,93.06
2018-06-25T05:32:49.428Z,91.53
2018-06-25T05:33:49.427Z,92.10
2018-06-25T05:34:49.423Z,91.63
2018-06-25T05:35:49.422Z,92.30
2018-06-25T05:36:49.421Z,91.82
2018-06-25T05:37:49.418Z,91.14
2018-06-25T05:38:49.408Z,91.28
2018-06-25T05:39:49.416Z,91.63
2018-06-25T05:40:49.409Z,91.38
2018-06-25T05:41:49.407Z,90.90
2018-06-25T05:42:49.409Z,90.81
2018-06-25T05:43:49.400Z,91.38
2018-06-25T05:44:49.402Z,90.67
2018-06-25T05:45:49.398Z,91.38
2018-06-25T05:46:49.397Z,90.57
2018-06-25T05:47:49.395Z,90.23
2018-06-25T05:48:49.450Z,91.05
2018-06-25T05:49:49.388Z,90.42
2018-06-25T05:50:49.387Z,89.80
2018-06-25T05:51:49.385Z,90.09
2018-06-25T05:52:49.382Z,88.84
2018-06-25T05:53:49.382Z,89.47
2018-06-25T05:54:49.376Z,89.37
2018-06-25T05:55:49.377Z,88.98
2018-06-25T05:56:49.373Z,88.79
2018-06-25T05:57:49.371Z,89.47
2018-06-25T05:58:49.383Z,88.79
2018-06-25T05:59:49.370Z,88.98
2018-06-25T06:00:49.364Z,88.60
2018-06-25T06:01:49.363Z,89.27
2018-06-25T06:02:49.361Z,89.65
2018-06-25T06:03:49.360Z,88.98
2018-06-25T06:04:49.356Z,88.89
2018-06-25T06:05:49.355Z,89.08
2018-06-25T06:06:49.353Z,88.22
2018-06-25T06:07:49.351Z,88.60
2018-06-25T06:08:49.348Z,88.31
2018-06-25T06:09:49.347Z,88.02
2018-06-25T06:10:49.346Z,88.84
2018-06-25T06:11:49.342Z,87.88
2018-06-25T06:12:49.342Z,87.88
2018-06-25T06:13:49.392Z,87.59
2018-06-25T06:14:49.349Z,87.78
2018-06-25T06:15:49.339Z,86.82
2018-06-25T06:16:49.335Z,86.38
2018-06-25T06:17:49.334Z,85.38
2018-06-25T06:18:49.331Z,85.86
2018-06-25T06:19:49.331Z,86.44
2018-06-25T06:20:49.329Z,86.05
2018-06-25T06:21:49.328Z,86.44
2018-06-25T06:22:49.328Z,87.21
2018-06-25T06:23:49.325Z,85.86
2018-06-25T06:24:49.325Z,85.48
2018-06-25T06:25:49.321Z,85.19
2018-06-25T06:26:49.322Z,85.00
2018-06-25T06:27:49.318Z,85.38
2018-06-25T06:28:49.317Z,86.05
2018-06-25T06:29:49.314Z,84.52
2018-06-25T06:30:49.313Z,84.61
2018-06-25T06:31:49.313Z,84.71
2018-06-25T06:32:49.311Z,84.91
2018-06-25T06:33:49.310Z,83.94
2018-06-25T06:34:49.309Z,84.95
2018-06-25T06:35:49.308Z,84.71
2018-06-25T06:36:49.305Z,84.47
2018-06-25T06:37:49.304Z,84.18
2018-06-25T06:38:49.306Z,84.75
2018-06-25T06:39:49.316Z,83.89
2018-06-25T06:40:49.300Z,83.22
2018-06-25T06:41:49.298Z,83.12
2018-06-25T06:42:49.298Z,83.26
2018-06-25T06:43:49.297Z,83.12
2018-06-25T06:44:49.294Z,82.93
2018-06-25T06:45:49.295Z,82.93
2018-06-25T06:46:49.294Z,83.41
2018-06-25T06:47:49.296Z,82.87
2018-06-25T06:48:49.290Z,82.93
2018-06-25T06:49:49.290Z,82.30
2018-06-25T06:50:49.288Z,81.78
2018-06-25T06:51:49.288Z,82.84
2018-06-25T06:52:49.284Z,82.30
2018-06-25T06:53:49.285Z,81.49
2018-06-25T06:54:49.285Z,81.78
2018-06-25T06:55:49.286Z,82.26
2018-06-25T06:56:49.273Z,81.97
2018-06-25T06:57:49.281Z,81.68
2018-06-25T06:58:49.277Z,81.87
2018-06-25T06:59:49.275Z,81.97
2018-06-25T07:00:49.276Z,82.07
2018-06-25T07:01:49.264Z,81.49
2018-06-25T07:02:49.269Z,81.20
2018-06-25T07:03:49.272Z,80.15
2018-06-25T07:04:49.284Z,80.73
2018-06-25T07:05:49.266Z,80.15
2018-06-25T07:06:49.268Z,81.63
2018-06-25T07:07:49.268Z,81.78
2018-06-25T07:08:49.264Z,80.53
2018-06-25T07:09:49.262Z,80.63
2018-06-25T07:10:49.264Z,80.34
2018-06-25T07:11:49.261Z,79.99
2018-06-25T07:12:49.260Z,80.15
2018-06-25T07:13:49.260Z,81.43
2018-06-25T07:14:49.251Z,80.66
2018-06-25T07:15:49.257Z,81.05
2018-06-25T07:16:49.255Z,80.47
2018-06-25T07:17:49.256Z,81.43
2018-06-25T07:18:49.254Z,79.13
2018-06-25T07:19:49.258Z,79.32
2018-06-25T07:20:49.286Z,78.98
2018-06-25T07:21:49.253Z,79.80
2018-06-25T07:22:49.251Z,78.17
2018-06-25T07:23:49.254Z,78.36
2018-06-25T07:24:49.255Z,78.59
2018-06-25T07:25:49.251Z,77.83
2018-06-25T07:26:49.250Z,76.86
2018-06-25T07:27:49.249Z,75.52
2018-06-25T07:28:49.260Z,75.52
2018-06-25T07:29:49.252Z,75.81
2018-06-25T07:30:49.247Z,75.81
2018-06-25T07:31:49.256Z,75.32
2018-06-25T07:32:49.246Z,75.42
2018-06-25T07:33:49.247Z,73.60
2018-06-25T07:34:49.247Z,75.90
2018-06-25T07:35:49.245Z,73.60
2018-06-25T07:36:49.245Z,73.21
2018-06-25T07:37:49.245Z,72.67
2018-06-25T07:38:49.244Z,71.91
2018-06-25T07:39:49.243Z,71.52
2018-06-25T07:40:49.243Z,71.81
2018-06-25T07:41:49.242Z,71.81
2018-06-25T07:42:49.244Z,71.77
2018-06-25T07:43:49.243Z,71.10
2018-06-25T07:44:49.238Z,70.90
2018-06-25T07:45:49.242Z,72.25
2018-06-25T07:46:49.239Z,72.25
2018-06-25T07:47:49.241Z,73.15
2018-06-25T07:48:49.241Z,72.19
2018-06-25T07:49:49.241Z,71.52
2018-06-25T07:50:49.240Z,70.46
2018-06-25T07:51:49.240Z,71.42
2018-06-25T07:52:49.240Z,71.71
2018-06-25T07:53:49.238Z,72.19
2018-06-25T07:54:49.241Z,72.38
2018-06-25T07:55:49.239Z,72.38
2018-06-25T07:56:49.239Z,72.48
2018-06-25T07:57:49.237Z,72.77
2018-06-25T07:58:49.235Z,72.09
2018-06-25T07:59:49.236Z,72.29
2018-06-25T08:00:49.240Z,72.00
2018-06-25T08:01:49.237Z,71.81
2018-06-25T08:02:49.234Z,72.09
2018-06-25T08:03:49.236Z,71.42
2018-06-25T08:04:49.253Z,71.42
2018-06-25T08:05:49.234Z,71.61
2018-06-25T08:06:49.234Z,71.04
2018-06-25T08:07:49.236Z,72.09
2018-06-25T08:08:49.233Z,71.42
2018-06-25T08:09:49.299Z,71.14
2018-06-25T08:10:49.234Z,71.04
2018-06-25T08:11:49.232Z,70.94
2018-06-25T08:12:49.233Z,70.75
2018-06-25T08:13:49.230Z,70.37
2018-06-25T08:14:49.230Z,69.69
2018-06-25T08:15:49.230Z,71.33
2018-06-25T08:16:49.229Z,71.33
2018-06-25T08:17:49.229Z,71.52
2018-06-25T08:18:49.231Z,72.00
2018-06-25T08:19:49.230Z,71.33
2018-06-25T08:20:49.232Z,69.79
2018-06-25T08:21:49.230Z,69.98
2018-06-25T08:22:49.229Z,70.27
2018-06-25T08:23:49.227Z,69.50
2018-06-25T08:24:49.236Z,69.02
2018-06-25T08:25:49.228Z,70.07
2018-06-25T08:26:49.227Z,70.21
2018-06-25T08:27:49.225Z,70.68
2018-06-25T08:28:49.236Z,69.63
2018-06-25T08:29:49.274Z,70.01
2018-06-25T08:30:49.227Z,69.82
2018-06-25T08:31:49.231Z,69.82
2018-06-25T08:32:49.225Z,69.28
2018-06-25T08:33:49.235Z,68.99
2018-06-25T08:34:49.228Z,69.73
2018-06-25T08:35:49.228Z,69.47
2018-06-25T08:36:49.226Z,67.83
2018-06-25T08:37:49.227Z,67.16
2018-06-25T08:38:49.230Z,66.97
2018-06-25T08:39:49.229Z,66.01
2018-06-25T08:40:49.229Z,66.49
2018-06-25T08:41:49.233Z,66.49
2018-06-25T08:42:49.227Z,66.30
2018-06-25T08:43:49.230Z,67.55
2018-06-25T08:44:49.229Z,67.13
2018-06-25T08:45:49.233Z,68.09
2018-06-25T08:46:49.294Z,68.32
2018-06-25T08:47:49.228Z,68.41
2018-06-25T08:48:49.228Z,68.03
2018-06-25T08:49:49.229Z,68.32
2018-06-25T08:50:49.229Z,67.26
2018-06-25T08:51:49.231Z,69.09
2018-06-25T08:52:49.225Z,68.70
2018-06-25T08:53:49.229Z,68.19
2018-06-25T08:54:49.230Z,68.57
2018-06-25T08:55:49.232Z,68.76
2018-06-25T08:56:49.231Z,68.80
2018-06-25T08:57:49.230Z,68.86
2018-06-25T08:58:49.230Z,68.67
2018-06-25T08:59:49.232Z,69.44
2018-06-25T09:00:49.230Z,68.86
2018-06-25T09:01:49.233Z,69.82
2018-06-25T09:02:49.235Z,69.92
2018-06-25T09:03:49.254Z,68.86
2018-06-25T09:04:49.229Z,70.11
2018-06-25T09:05:49.230Z,71.26
2018-06-25T09:06:49.233Z,69.73
2018-06-25T09:07:49.232Z,68.13
2018-06-25T09:08:49.234Z,70.53
2018-06-25T09:09:49.239Z,69.38
2018-06-25T09:10:49.233Z,68.70
2018-06-25T09:11:49.237Z,67.99
2018-06-25T09:12:49.234Z,68.38
2018-06-25T09:13:49.232Z,69.44
2018-06-25T09:14:49.237Z,68.76
2018-06-25T09:15:49.236Z,70.24
2018-06-25T09:16:49.233Z,69.38
2018-06-25T09:17:49.236Z,70.34
2018-06-25T09:18:49.233Z,69.47
2018-06-25T09:19:49.237Z,69.28
2018-06-25T09:20:49.235Z,69.57
2018-06-25T09:21:49.237Z,67.35
2018-06-25T09:22:49.238Z,68.80
2018-06-25T09:23:49.236Z,67.93
2018-06-25T09:24:49.238Z,69.41
2018-06-25T09:25:49.239Z,68.26
2018-06-25T09:26:49.243Z,68.35
2018-06-25T09:27:49.278Z,66.33
2018-06-25T09:28:49.241Z,66.68
2018-06-25T09:29:49.241Z,65.97
2018-06-25T09:30:49.245Z,67.35
2018-06-25T09:31:49.244Z,68.22
2018-06-25T09:32:49.241Z,68.51
2018-06-25T09:33:49.246Z,68.54
2018-06-25T09:34:49.250Z,69.12
2018-06-25T09:35:49.246Z,66.01
2018-06-25T09:36:49.251Z,68.13
2018-06-25T09:37:49.250Z,66.10
2018-06-25T09:38:49.249Z,66.62
2018-06-25T09:39:49.251Z,68.06
2018-06-25T09:40:49.255Z,67.39
2018-06-25T09:41:49.319Z,65.46
2018-06-25T09:42:49.255Z,65.17
2018-06-25T09:43:49.254Z,65.08
2018-06-25T09:44:49.254Z,65.53
2018-06-25T09:45:49.257Z,67.00
2018-06-25T09:46:49.273Z,65.81
2018-06-25T09:47:49.262Z,66.52
2018-06-25T09:48:49.259Z,66.91
2018-06-25T09:49:49.261Z,65.81
2018-06-25T09:50:49.261Z,65.91
2018-06-25T09:51:49.262Z,66.01
2018-06-25T09:52:49.263Z,66.88
2018-06-25T09:53:49.274Z,68.41
2018-06-25T09:54:49.324Z,67.45
2018-06-25T09:55:49.268Z,66.42
2018-06-25T09:56:49.275Z,65.17
2018-06-25T09:57:49.270Z,65.85
2018-06-25T09:58:49.271Z,65.08
2018-06-25T09:59:49.275Z,66.04
2018-06-25T10:00:49.274Z,64.59
2018-06-25T10:01:49.280Z,64.12
2018-06-25T10:02:49.275Z,64.12
2018-06-25T10:03:49.277Z,64.21
2018-06-25T10:04:49.282Z,64.40
2018-06-25T10:05:49.280Z,63.73
2018-06-25T10:06:49.281Z,65.17
2018-06-25T10:07:49.285Z,62.57
2018-06-25T10:08:49.281Z,63.92
2018-06-25T10:09:49.284Z,63.25
2018-06-25T10:10:49.286Z,64.08
2018-06-25T10:11:49.292Z,64.95
2018-06-25T10:12:49.290Z,65.66
2018-06-25T10:13:49.288Z,65.17
2018-06-25T10:14:49.292Z,64.59
2018-06-25T10:15:49.294Z,64.12
2018-06-25T10:16:49.293Z,65.08
2018-06-25T10:17:49.296Z,64.28
2018-06-25T10:18:49.299Z,66.52
2018-06-25T10:19:49.298Z,65.37
2018-06-25T10:20:49.301Z,64.50
2018-06-25T10:21:49.303Z,65.46
2018-06-25T10:22:49.304Z,64.02
2018-06-25T10:23:49.305Z,63.92
2018-06-25T10:24:49.304Z,64.69
2018-06-25T10:25:49.308Z,63.67
2018-06-25T10:26:49.309Z,63.57
2018-06-25T10:27:49.309Z,63.57
2018-06-25T10:28:49.310Z,64.15
2018-06-25T10:29:49.319Z,63.85
2018-06-25T10:30:49.315Z,64.76
2018-06-25T10:31:49.315Z,63.47
2018-06-25T10:32:49.373Z,64.05
2018-06-25T10:33:49.319Z,63.67
2018-06-25T10:34:49.377Z,64.34
2018-06-25T10:35:49.320Z,63.95
2018-06-25T10:36:49.325Z,63.95
2018-06-25T10:37:49.328Z,64.05
2018-06-25T10:38:49.327Z,67.03
2018-06-25T10:39:49.327Z,65.91
2018-06-25T10:40:49.327Z,65.24
2018-06-25T10:41:49.329Z,63.79
2018-06-25T10:42:49.330Z,64.50
2018-06-25T10:43:49.334Z,64.79
2018-06-25T10:44:49.332Z,63.44
2018-06-25T10:45:49.336Z,61.80
2018-06-25T10:46:49.338Z,61.87
2018-06-25T10:47:49.337Z,62.06
2018-06-25T10:48:49.343Z,63.02
2018-06-25T10:49:49.341Z,61.10
2018-06-25T10:50:49.343Z,61.07
2018-06-25T10:51:49.344Z,62.35
2018-06-25T10:52:49.346Z,62.25
2018-06-25T10:53:49.348Z,62.83
2018-06-25T10:54:49.350Z,61.87
2018-06-25T10:55:49.358Z,62.90
2018-06-25T10:56:49.353Z,62.63
2018-06-25T10:57:49.354Z,63.79
2018-06-25T10:58:49.356Z,62.83
2018-06-25T10:59:49.461Z,64.08
2018-06-25T11:00:49.363Z,63.12
2018-06-25T11:01:49.361Z,64.11
2018-06-25T11:02:49.365Z,61.25
2018-06-25T11:03:49.362Z,61.06
2018-06-25T11:04:49.366Z,61.93
2018-06-25T11:05:49.373Z,60.26
2018-06-25T11:06:49.370Z,61.00
2018-06-25T11:07:49.464Z,63.70
2018-06-25T11:08:49.373Z,63.50
2018-06-25T11:09:49.373Z,62.83
2018-06-25T11:10:49.374Z,62.15
2018-06-25T11:11:49.378Z,61.77
2018-06-25T11:12:49.449Z,62.06
2018-06-25T11:13:49.383Z,62.57
2018-06-25T11:14:49.382Z,62.57
2018-06-25T11:15:49.383Z,61.32
2018-06-25T11:16:49.390Z,62.96
2018-06-25T11:17:49.384Z,62.89
2018-06-25T11:18:49.389Z,60.58
2018-06-25T11:19:49.388Z,59.42
2018-06-25T11:20:49.389Z,59.74
2018-06-25T11:21:49.391Z,59.45
2018-06-25T11:22:49.393Z,57.42
2018-06-25T11:23:49.395Z,59.00
2018-06-25T11:24:49.396Z,56.46
2018-06-25T11:25:49.399Z,56.68
2018-06-25T11:26:49.463Z,58.03
2018-06-25T11:27:49.453Z,58.45
2018-06-25T11:28:49.406Z,57.70
2018-06-25T11:29:49.403Z,55.47
2018-06-25T11:30:49.407Z,55.60
2018-06-25T11:31:49.407Z,56.30
2018-06-25T11:32:49.409Z,55.24
2018-06-25T11:33:49.411Z,54.61
2018-06-25T11:34:49.412Z,55.65
2018-06-25T11:35:49.425Z,56.58
2018-06-25T11:36:49.421Z,58.03
2018-06-25T11:37:49.419Z,59.06
2018-06-25T11:38:49.422Z,59.64
2018-06-25T11:39:49.422Z,59.83
2018-06-25T11:40:49.426Z,59.61
2018-06-25T11:41:49.439Z,59.80
2018-06-25T11:42:49.431Z,59.71
2018-06-25T11:43:49.432Z,59.32
2018-06-25T11:44:49.436Z,61.06
2018-06-25T11:45:49.439Z,62.70
2018-06-25T11:46:49.438Z,62.79
2018-06-25T11:47:49.442Z,62.54
2018-06-25T11:48:49.444Z,61.96
2018-06-25T11:49:49.447Z,61.67
2018-06-25T11:50:49.451Z,61.02
2018-06-25T11:51:49.586Z,59.58
2018-06-25T11:52:49.458Z,59.02
2018-06-25T11:53:49.455Z,58.54
2018-06-25T11:54:49.459Z,58.61
2018-06-25T11:55:49.461Z,58.03
2018-06-25T11:56:49.481Z,58.42
2018-06-25T11:57:49.466Z,59.22
2018-06-25T11:58:49.470Z,58.86
2018-06-25T11:59:49.472Z,56.73
2018-06-25T12:00:49.479Z,55.89
2018-06-25T12:01:49.536Z,55.21
2018-06-25T12:02:49.580Z,56.50
2018-06-25T12:03:49.489Z,57.08
2018-06-25T12:04:49.497Z,55.92
2018-06-25T12:05:49.499Z,54.37
2018-06-25T12:06:49.501Z,54.75
2018-06-25T12:07:49.505Z,55.09
2018-06-25T12:08:49.509Z,57.67
2018-06-25T12:09:49.513Z,58.51
2018-06-25T12:10:49.521Z,59.25
2018-06-25T12:11:49.523Z,59.93
2018-06-25T12:12:49.525Z,59.23
2018-06-25T12:13:49.530Z,61.16
2018-06-25T12:14:49.534Z,60.38
2018-06-25T12:15:49.536Z,61.38
2018-06-25T12:16:49.541Z,59.71
2018-06-25T12:17:49.544Z,58.97
2018-06-25T12:18:49.546Z,59.13
2018-06-25T12:19:49.562Z,59.42
2018-06-25T12:20:49.558Z,60.89
2018-06-25T12:21:49.555Z,59.09
2018-06-25T12:22:49.559Z,57.38
2018-06-25T12:23:49.563Z,57.87
2018-06-25T12:24:49.564Z,56.45
2018-06-25T12:25:49.568Z,58.70
2018-06-25T12:26:49.572Z,54.51
2018-06-25T12:27:49.584Z,56.67
2018-06-25T12:28:49.576Z,56.32
2018-06-25T12:29:49.580Z,56.71
2018-06-25T12:30:49.584Z,57.57
2018-06-25T12:31:49.588Z,57.54
2018-06-25T12:32:49.589Z,58.42
2018-06-25T12:33:49.591Z,58.80
2018-06-25T12:34:49.595Z,58.97
2018-06-25T12:35:49.597Z,58.68
2018-06-25T12:36:49.601Z,58.36
2018-06-25T12:37:49.615Z,58.77
2018-06-25T12:38:49.607Z,58.65
2018-06-25T12:39:49.609Z,58.48
2018-06-25T12:40:49.609Z,56.46
2018-06-25T12:41:49.614Z,56.58
2018-06-25T12:42:49.616Z,57.29
2018-06-25T12:43:49.619Z,56.25
2018-06-25T12:44:49.619Z,55.21
2018-06-25T12:45:49.625Z,53.25
2018-06-25T12:46:49.626Z,53.21
2018-06-25T12:47:49.630Z,54.01
2018-06-25T12:48:49.632Z,52.66
2018-06-25T12:49:49.634Z,51.52
2018-06-25T12:50:49.638Z,49.46
2018-06-25T12:51:49.639Z,51.30
2018-06-25T12:52:49.642Z,50.67